Time;durP1;ratioP1;P1;durP2;ratioP2;P2;SDS_P1;SDS_P2;PMS_P1;PMS_P2;Temp;Humidity;BMP_temperature;BMP_pressure;BME280_temperature;BME280_humidity;BME280_pressure;Samples;Min_cycle;Max_cycle;Signal;HPM_P1;HPM_P2
2022/03/07 00:00:39;;;;;;;3.30;2.20;;;0.70;79.70;;;;;;5094500;28;20032;-73
2022/03/07 00:03:06;;;;;;;3.20;2.20;;;0.70;79.80;;;;;;5093017;28;20035;-73
2022/03/07 00:05:32;;;;;;;3.80;2.20;;;0.70;80.10;;;;;;5094090;28;20024;-73
2022/03/07 00:07:57;;;;;;;3.40;2.35;;;0.60;80.20;;;;;;5093908;28;20057;-74
2022/03/07 00:10:23;;;;;;;3.30;2.20;;;0.60;80.10;;;;;;5094070;28;20032;-74
2022/03/07 00:12:49;;;;;;;3.15;1.95;;;0.60;80.10;;;;;;5093745;28;20020;-75
2022/03/07 00:15:16;;;;;;;2.78;1.95;;;0.60;80.10;;;;;;5092811;28;20793;-75
2022/03/07 00:17:42;;;;;;;4.40;2.70;;;0.60;80.30;;;;;;5093634;28;20726;-75
2022/03/07 00:20:09;;;;;;;3.47;2.40;;;0.60;80.30;;;;;;5092585;28;20043;-74
2022/03/07 00:22:35;;;;;;;4.22;2.60;;;0.60;80.50;;;;;;5093585;28;20034;-74
2022/03/07 00:25:00;;;;;;;4.45;2.70;;;0.60;80.60;;;;;;5092658;28;20377;-74
2022/03/07 00:27:26;;;;;;;4.75;2.80;;;0.60;80.60;;;;;;5092561;28;20024;-75
2022/03/07 00:29:52;;;;;;;4.82;2.70;;;0.60;80.70;;;;;;5093356;28;20034;-75
2022/03/07 00:32:18;;;;;;;3.72;2.30;;;0.50;80.80;;;;;;5092261;28;20028;-74
2022/03/07 00:34:43;;;;;;;4.90;2.45;;;0.50;81.00;;;;;;5092086;28;20036;-75
2022/03/07 00:37:09;;;;;;;3.88;2.40;;;0.50;81.10;;;;;;5093438;28;20389;-74
2022/03/07 00:39:35;;;;;;;3.35;2.33;;;0.50;80.90;;;;;;5093108;28;20511;-74
2022/03/07 00:42:01;;;;;;;4.80;2.60;;;0.50;81.10;;;;;;5093489;28;20039;-74
2022/03/07 00:44:27;;;;;;;3.42;2.15;;;0.50;81.20;;;;;;5093305;28;20028;-75
2022/03/07 00:46:53;;;;;;;3.05;2.10;;;0.50;81.30;;;;;;5091981;28;20038;-74
2022/03/07 00:49:19;;;;;;;4.15;2.47;;;0.50;81.40;;;;;;5092133;28;20042;-73
2022/03/07 00:51:44;;;;;;;2.63;1.92;;;0.50;81.40;;;;;;5093283;28;20432;-74
2022/03/07 00:54:10;;;;;;;3.72;2.58;;;0.50;81.30;;;;;;5093319;28;20492;-74
2022/03/07 00:56:36;;;;;;;4.28;2.58;;;0.60;81.40;;;;;;5093141;28;20055;-74
2022/03/07 00:59:02;;;;;;;4.47;2.90;;;0.60;81.40;;;;;;5091849;28;20068;-74
2022/03/07 01:01:28;;;;;;;6.47;3.20;;;0.60;81.40;;;;;;5091418;28;20028;-75
2022/03/07 01:03:54;;;;;;;5.15;2.70;;;0.50;81.70;;;;;;5092755;28;20024;-74
2022/03/07 01:06:19;;;;;;;4.40;2.40;;;0.50;81.70;;;;;;5091699;28;20077;-75
2022/03/07 01:08:45;;;;;;;3.22;2.20;;;0.50;81.70;;;;;;5091683;28;20035;-73
2022/03/07 01:11:11;;;;;;;3.58;2.40;;;0.50;81.70;;;;;;5091749;28;20055;-74
2022/03/07 01:13:38;;;;;;;4.82;2.70;;;0.50;81.60;;;;;;5091234;28;20077;-75
2022/03/07 01:16:04;;;;;;;4.25;2.70;;;0.50;81.50;;;;;;5091554;28;20089;-73
2022/03/07 01:18:30;;;;;;;5.20;3.05;;;0.50;81.50;;;;;;5092576;28;20028;-75
2022/03/07 01:20:56;;;;;;;4.28;2.65;;;0.50;81.60;;;;;;5091460;28;20020;-75
2022/03/07 01:23:21;;;;;;;3.88;2.45;;;0.50;81.70;;;;;;5090648;28;20034;-73
2022/03/07 01:25:47;;;;;;;4.68;2.70;;;0.50;81.90;;;;;;5092111;28;20063;-74
2022/03/07 01:28:13;;;;;;;4.32;2.72;;;0.50;81.80;;;;;;5092912;28;20476;-74
2022/03/07 01:30:40;;;;;;;4.47;2.70;;;0.50;81.90;;;;;;5092707;28;20035;-75
2022/03/07 01:33:06;;;;;;;3.85;2.33;;;0.50;81.80;;;;;;5091164;28;20028;-75
2022/03/07 01:35:31;;;;;;;3.72;2.40;;;0.50;82.00;;;;;;5092553;28;20381;-75
2022/03/07 01:37:57;;;;;;;3.63;2.38;;;0.50;82.60;;;;;;5092575;28;20028;-73
2022/03/07 01:40:23;;;;;;;3.83;2.10;;;0.50;82.50;;;;;;5091980;28;20051;-74
2022/03/07 01:42:49;;;;;;;4.03;2.30;;;0.50;82.60;;;;;;5092203;28;20146;-75
2022/03/07 01:45:17;;;;;;;3.20;2.20;;;0.50;82.90;;;;;;5091031;28;20027;-72
2022/03/07 01:47:44;;;;;;;3.40;2.28;;;0.50;82.80;;;;;;5090796;28;20568;-74
2022/03/07 01:50:13;;;;;;;4.68;2.65;;;0.50;82.70;;;;;;5091943;28;20042;-74
2022/03/07 01:52:41;;;;;;;3.72;2.53;;;0.50;82.60;;;;;;5090649;28;20047;-74
2022/03/07 01:55:08;;;;;;;4.10;2.47;;;0.50;83.20;;;;;;5092095;28;20031;-74
2022/03/07 01:57:42;;;;;;;3.75;2.58;;;0.50;82.60;;;;;;5091917;28;20032;-80
2022/03/07 02:00:11;;;;;;;5.20;3.00;;;0.50;83.00;;;;;;5090554;28;20039;-73
2022/03/07 02:02:37;;;;;;;4.85;2.97;;;0.50;82.30;;;;;;5090448;28;20028;-74
2022/03/07 02:05:04;;;;;;;5.30;3.13;;;0.50;82.30;;;;;;5090482;28;20050;-75
2022/03/07 02:07:30;;;;;;;5.75;3.15;;;0.40;82.20;;;;;;5090587;28;20032;-74
2022/03/07 02:09:58;;;;;;;4.82;2.85;;;0.40;82.30;;;;;;5091666;28;20073;-74
2022/03/07 02:12:24;;;;;;;5.05;2.75;;;0.40;82.10;;;;;;5091433;28;20400;-73
2022/03/07 02:14:50;;;;;;;4.78;2.60;;;0.40;82.10;;;;;;5094481;28;20031;-72
2022/03/07 02:17:16;;;;;;;4.80;2.88;;;0.40;82.10;;;;;;5094215;28;20024;-73
2022/03/07 02:19:42;;;;;;;4.75;2.70;;;0.30;82.20;;;;;;5094608;28;20097;-73
2022/03/07 02:22:10;;;;;;;5.35;2.70;;;0.30;82.30;;;;;;5093959;28;20458;-73
2022/03/07 02:24:37;;;;;;;4.82;2.20;;;0.30;82.30;;;;;;5092823;28;20032;-73
2022/03/07 02:27:05;;;;;;;4.28;2.30;;;0.30;82.30;;;;;;5094254;28;20036;-73
2022/03/07 02:29:32;;;;;;;4.07;2.47;;;0.30;82.10;;;;;;5094005;28;20422;-73
2022/03/07 02:31:58;;;;;;;4.38;2.65;;;0.30;82.10;;;;;;5092678;28;20154;-73
2022/03/07 02:34:25;;;;;;;3.92;2.58;;;0.30;82.00;;;;;;5093629;28;20393;-73
2022/03/07 02:36:51;;;;;;;4.60;2.50;;;0.30;82.00;;;;;;5093991;28;20027;-72
2022/03/07 02:39:18;;;;;;;4.35;2.40;;;0.30;82.20;;;;;;5093438;28;20052;-74
2022/03/07 02:41:44;;;;;;;4.18;2.47;;;0.30;82.20;;;;;;5092603;28;20024;-72
2022/03/07 02:44:11;;;;;;;4.00;2.60;;;0.30;82.20;;;;;;5092578;28;20469;-72
2022/03/07 02:46:37;;;;;;;4.90;2.70;;;0.30;82.20;;;;;;5093798;28;20051;-73
2022/03/07 02:49:04;;;;;;;4.07;2.50;;;0.30;82.20;;;;;;5093661;28;20028;-72
2022/03/07 02:51:30;;;;;;;4.45;2.35;;;0.30;82.50;;;;;;5093712;28;20026;-72
2022/03/07 02:53:56;;;;;;;3.97;2.25;;;0.20;82.40;;;;;;5092495;28;20462;-72
2022/03/07 02:56:22;;;;;;;3.30;2.30;;;0.20;82.70;;;;;;5092675;28;20031;-73
2022/03/07 02:58:48;;;;;;;3.30;2.20;;;0.20;82.80;;;;;;5092332;28;20093;-74
2022/03/07 03:01:14;;;;;;;3.63;2.10;;;0.20;83.00;;;;;;5092680;28;20051;-73
2022/03/07 03:03:39;;;;;;;2.53;1.90;;;0.30;83.10;;;;;;5093735;28;20412;-73
2022/03/07 03:06:05;;;;;;;3.10;2.00;;;0.30;83.10;;;;;;5092422;28;20527;-74
2022/03/07 03:08:31;;;;;;;4.07;2.33;;;0.30;83.00;;;;;;5093701;28;20027;-73
2022/03/07 03:10:57;;;;;;;3.22;2.13;;;0.30;82.90;;;;;;5093600;28;20057;-73
2022/03/07 03:13:23;;;;;;;3.70;2.17;;;0.30;83.00;;;;;;5093620;28;20089;-73
2022/03/07 03:15:51;;;;;;;3.50;2.28;;;0.30;83.30;;;;;;5092362;28;20358;-73
2022/03/07 03:18:18;;;;;;;3.70;2.38;;;0.30;83.40;;;;;;5093490;28;20465;-73
2022/03/07 03:20:45;;;;;;;3.33;2.25;;;0.30;83.50;;;;;;5093534;28;20476;-73
2022/03/07 03:23:12;;;;;;;2.95;2.00;;;0.30;83.70;;;;;;5093559;28;20066;-73
2022/03/07 03:25:37;;;;;;;4.07;2.28;;;0.30;83.90;;;;;;5093512;28;20028;-73
2022/03/07 03:28:04;;;;;;;4.15;2.10;;;0.30;83.90;;;;;;5093497;28;20030;-73
2022/03/07 03:30:30;;;;;;;3.95;2.70;;;0.30;83.80;;;;;;5092174;28;20034;-73
2022/03/07 03:32:57;;;;;;;4.63;2.70;;;0.30;84.00;;;;;;5093589;28;20107;-73
2022/03/07 03:35:23;;;;;;;4.82;2.90;;;0.30;84.00;;;;;;5093558;28;20078;-73
2022/03/07 03:37:49;;;;;;;3.75;2.83;;;0.30;84.10;;;;;;5092054;28;20024;-74
2022/03/07 03:40:15;;;;;;;5.18;3.10;;;0.30;84.30;;;;;;5091595;28;20390;-73
2022/03/07 03:42:41;;;;;;;4.65;3.13;;;0.20;84.60;;;;;;5093344;28;20046;-74
2022/03/07 03:45:10;;;;;;;7.40;3.53;;;0.20;84.70;;;;;;5093399;28;20093;-74
2022/03/07 03:47:41;;;;;;;6.13;3.42;;;0.20;84.90;;;;;;5096660;28;20020;-73
2022/03/07 03:50:10;;;;;;;7.85;3.22;;;0.20;85.10;;;;;;5096912;28;20032;-74
2022/03/07 03:52:36;;;;;;;4.13;2.70;;;0.20;85.40;;;;;;5097297;28;20366;-74
2022/03/07 03:55:04;;;;;;;5.45;2.78;;;0.10;85.60;;;;;;5096650;28;20031;-74
2022/03/07 03:57:30;;;;;;;4.97;3.00;;;0.10;85.50;;;;;;5096036;28;20028;-74
2022/03/07 03:59:56;;;;;;;6.28;3.08;;;0.10;85.40;;;;;;5096948;28;20477;-74
2022/03/07 04:02:22;;;;;;;4.03;2.60;;;0.10;85.00;;;;;;5095953;28;20024;-73
2022/03/07 04:04:48;;;;;;;4.40;2.40;;;0.10;85.10;;;;;;5096985;28;20484;-74
2022/03/07 04:07:14;;;;;;;3.70;2.35;;;0.10;85.30;;;;;;5096588;28;20378;-73
2022/03/07 04:09:40;;;;;;;4.40;2.60;;;0.10;85.40;;;;;;5095312;28;20491;-74
2022/03/07 04:12:06;;;;;;;6.18;3.05;;;0.10;86.00;;;;;;5096783;28;20028;-73
2022/03/07 04:14:32;;;;;;;5.55;2.92;;;0.10;86.60;;;;;;5096511;28;20028;-73
2022/03/07 04:16:58;;;;;;;5.80;2.90;;;0.10;87.00;;;;;;5096296;28;20133;-73
2022/03/07 04:19:24;;;;;;;5.60;2.88;;;0.10;87.50;;;;;;5095185;28;20032;-74
2022/03/07 04:21:50;;;;;;;7.28;3.78;;;0.20;88.20;;;;;;5096929;28;20427;-73
2022/03/07 04:24:15;;;;;;;7.15;3.33;;;0.20;88.50;;;;;;5096194;28;20035;-74
2022/03/07 04:26:42;;;;;;;7.30;3.60;;;0.20;87.90;;;;;;5094665;28;20024;-73
2022/03/07 04:29:09;;;;;;;6.32;3.60;;;0.20;88.10;;;;;;5095506;28;20126;-73
2022/03/07 04:31:40;;;;;;;9.10;4.63;;;0.20;88.30;;;;;;5094851;28;20066;-73
2022/03/07 04:34:07;;;;;;;8.95;4.43;;;0.20;88.00;;;;;;5096618;28;20069;-73
2022/03/07 04:36:35;;;;;;;10.15;4.43;;;0.20;87.60;;;;;;5096277;28;20020;-73
2022/03/07 04:39:02;;;;;;;7.90;3.78;;;0.30;87.50;;;;;;5095771;28;20056;-72
2022/03/07 04:41:28;;;;;;;7.50;3.58;;;0.30;87.30;;;;;;5094613;28;20024;-72
2022/03/07 04:43:54;;;;;;;7.82;3.70;;;0.30;86.80;;;;;;5095731;28;20115;-73
2022/03/07 04:46:20;;;;;;;8.27;3.67;;;0.30;86.60;;;;;;5095804;28;20020;-73
2022/03/07 04:48:45;;;;;;;9.05;4.25;;;0.30;86.10;;;;;;5096122;28;20024;-72
2022/03/07 04:51:11;;;;;;;9.35;4.38;;;0.40;86.00;;;;;;5095680;28;20024;-74
2022/03/07 04:53:37;;;;;;;10.75;4.72;;;0.40;85.90;;;;;;5095612;28;20110;-73
2022/03/07 04:56:03;;;;;;;10.90;5.60;;;0.30;85.70;;;;;;5094338;28;20434;-74
2022/03/07 04:58:29;;;;;;;10.35;5.55;;;0.30;86.10;;;;;;5094736;28;20024;-73
2022/03/07 05:00:55;;;;;;;10.57;5.30;;;0.30;85.90;;;;;;5094370;28;20024;-73
2022/03/07 05:03:21;;;;;;;8.88;4.63;;;0.30;85.80;;;;;;5094163;28;20450;-74
2022/03/07 05:05:48;;;;;;;6.80;3.97;;;0.30;85.80;;;;;;5093997;28;20032;-72
2022/03/07 05:08:14;;;;;;;6.05;3.60;;;0.30;86.00;;;;;;5095285;28;20032;-73
2022/03/07 05:10:40;;;;;;;6.25;3.80;;;0.30;85.90;;;;;;5093945;28;20032;-73
2022/03/07 05:13:06;;;;;;;7.07;3.50;;;0.30;85.80;;;;;;5095225;28;20031;-72
2022/03/07 05:15:32;;;;;;;4.65;3.25;;;0.30;85.70;;;;;;5095188;28;20024;-73
2022/03/07 05:17:58;;;;;;;5.97;3.13;;;0.30;85.80;;;;;;5093984;28;20069;-73
2022/03/07 05:20:25;;;;;;;4.93;2.80;;;0.40;85.60;;;;;;5093692;28;20386;-73
2022/03/07 05:22:52;;;;;;;4.05;2.70;;;0.30;85.90;;;;;;5093647;28;20170;-73
2022/03/07 05:25:19;;;;;;;5.78;3.10;;;0.40;85.90;;;;;;5095005;28;20478;-73
2022/03/07 05:27:45;;;;;;;7.20;3.97;;;0.40;85.70;;;;;;5094737;28;20523;-73
2022/03/07 05:30:17;;;;;;;8.77;4.55;;;0.40;85.20;;;;;;5093658;28;20115;-72
2022/03/07 05:32:47;;;;;;;9.52;5.03;;;0.40;85.10;;;;;;5095227;28;20032;-73
2022/03/07 05:35:14;;;;;;;9.60;5.03;;;0.40;85.00;;;;;;5093531;28;20028;-73
2022/03/07 05:37:40;;;;;;;13.60;6.28;;;0.40;85.10;;;;;;5095537;28;20050;-73
2022/03/07 05:40:07;;;;;;;12.55;6.68;;;0.40;84.70;;;;;;5092952;28;20060;-73
2022/03/07 05:42:37;;;;;;;11.30;5.88;;;0.40;84.40;;;;;;5093223;28;20061;-73
2022/03/07 05:45:06;;;;;;;10.10;5.70;;;0.40;84.30;;;;;;5093368;28;20052;-73
2022/03/07 05:47:32;;;;;;;10.20;5.55;;;0.40;84.10;;;;;;5093157;28;20027;-73
2022/03/07 05:49:58;;;;;;;9.45;5.15;;;0.40;84.00;;;;;;5093302;28;20049;-73
2022/03/07 05:52:24;;;;;;;15.07;6.35;;;0.40;83.80;;;;;;5094300;28;20026;-74
2022/03/07 05:54:50;;;;;;;9.82;5.15;;;0.40;83.40;;;;;;5093011;28;20024;-73
2022/03/07 05:57:16;;;;;;;8.98;4.60;;;0.50;83.00;;;;;;5092953;28;20079;-73
2022/03/07 05:59:42;;;;;;;6.85;4.22;;;0.40;82.30;;;;;;5092942;28;20382;-73
2022/03/07 06:02:08;;;;;;;7.78;4.22;;;0.50;81.90;;;;;;5093983;28;20056;-74
2022/03/07 06:04:34;;;;;;;6.32;3.80;;;0.50;81.60;;;;;;5094108;28;20028;-73
2022/03/07 06:07:00;;;;;;;4.50;2.97;;;0.40;80.70;;;;;;5092831;28;20028;-73
2022/03/07 06:09:25;;;;;;;6.10;3.00;;;0.40;81.10;;;;;;5092355;28;20066;-73
2022/03/07 06:11:51;;;;;;;5.03;2.85;;;0.40;81.30;;;;;;5094148;28;20024;-74
2022/03/07 06:14:17;;;;;;;4.22;2.83;;;0.40;81.40;;;;;;5093922;28;20027;-74
2022/03/07 06:16:43;;;;;;;4.32;2.70;;;0.50;82.20;;;;;;5092708;28;20020;-73
2022/03/07 06:19:09;;;;;;;5.00;2.45;;;0.50;81.70;;;;;;5092554;28;20042;-74
2022/03/07 06:21:35;;;;;;;3.97;2.60;;;0.50;81.90;;;;;;5092751;28;20028;-75
2022/03/07 06:24:00;;;;;;;5.30;2.95;;;0.60;81.60;;;;;;5092492;28;20032;-74
2022/03/07 06:26:26;;;;;;;6.13;2.90;;;0.60;81.30;;;;;;5092506;28;20461;-73
2022/03/07 06:28:52;;;;;;;5.65;3.25;;;0.70;81.30;;;;;;5094090;28;20024;-74
2022/03/07 06:31:19;;;;;;;5.70;3.22;;;0.70;81.50;;;;;;5090032;28;20504;-75
2022/03/07 06:33:45;;;;;;;8.27;4.47;;;0.80;81.60;;;;;;5091064;28;20020;-75
2022/03/07 06:36:10;;;;;;;56.30;28.67;;;0.80;81.60;;;;;;5090077;28;20024;-78
2022/03/07 06:38:39;;;;;;;34.28;17.67;;;1.00;81.70;;;;;;5089393;28;20554;-75
2022/03/07 06:41:05;;;;;;;23.42;12.02;;;1.00;81.10;;;;;;5091133;28;20035;-75
2022/03/07 06:43:34;;;;;;;18.55;9.75;;;1.10;80.80;;;;;;5090973;28;20054;-75
